createdAt,value
2022-07-27T00:02:43.770Z,29.9
2022-07-27T00:08:09.301Z,29.9
2022-07-27T00:13:28.030Z,29.9
2022-07-27T00:18:46.190Z,29.9
2022-07-27T00:24:04.902Z,29.9
2022-07-27T00:29:23.630Z,30
2022-07-27T00:34:42.073Z,30
2022-07-27T00:40:00.786Z,30
2022-07-27T00:45:18.950Z,29.9
2022-07-27T00:50:36.824Z,29.9
2022-07-27T00:55:55.552Z,29.9
2022-07-27T01:01:13.982Z,29.9
2022-07-27T01:06:32.423Z,30
2022-07-27T01:11:50.863Z,30
2022-07-27T01:17:09.034Z,29.9
2022-07-27T01:22:27.241Z,29.9
2022-07-27T01:27:45.364Z,29.9
2022-07-27T01:33:03.815Z,29.9
2022-07-27T01:38:22.253Z,29.9
2022-07-27T01:43:40.972Z,30
2022-07-27T01:48:59.278Z,30
2022-07-27T01:54:17.841Z,30
2022-07-27T01:59:36.003Z,30
2022-07-27T02:04:54.254Z,30
2022-07-27T02:10:12.686Z,29.9
2022-07-27T02:15:44.631Z,29.9
2022-07-27T02:21:03.176Z,29.8
2022-07-27T02:26:21.616Z,29.6
2022-07-27T02:31:40.351Z,29.5
2022-07-27T02:36:58.782Z,29.3
2022-07-27T02:42:17.495Z,29.1
2022-07-27T02:47:36.211Z,28.9
2022-07-27T02:52:54.656Z,28.7
2022-07-27T02:58:12.542Z,29
2022-07-27T03:03:37.391Z,29
2022-07-27T03:08:55.838Z,29.1
2022-07-27T03:14:15.498Z,29.2
2022-07-27T03:19:34.227Z,29.2
2022-07-27T03:24:52.392Z,29.2
2022-07-27T03:30:10.550Z,28.9
2022-07-27T03:35:28.707Z,28.7
2022-07-27T03:40:47.149Z,28.6
2022-07-27T03:46:05.672Z,28.8
2022-07-27T03:51:23.892Z,28.8
2022-07-27T03:56:42.337Z,28.9
2022-07-27T04:02:00.725Z,29
2022-07-27T04:07:19.196Z,28.8
2022-07-27T04:12:37.353Z,28.8
2022-07-27T04:17:58.227Z,28.8
2022-07-27T04:23:17.036Z,28.9
2022-07-27T04:28:35.477Z,29
2022-07-27T04:33:53.920Z,29
2022-07-27T04:39:13.156Z,29.1
2022-07-27T04:44:31.949Z,29.1
2022-07-27T04:49:50.671Z,29.1
2022-07-27T04:55:09.107Z,29.1
2022-07-27T05:00:27.290Z,28.9
2022-07-27T05:05:50.851Z,29
2022-07-27T05:11:09.295Z,29.1
2022-07-27T05:16:29.450Z,29.2
2022-07-27T05:21:47.942Z,29.2
2022-07-27T05:27:06.388Z,29.3
2022-07-27T05:32:24.818Z,29.3
2022-07-27T05:37:43.546Z,29.4
2022-07-27T05:43:01.711Z,29.4
2022-07-27T05:48:20.149Z,29.5
2022-07-27T05:53:38.870Z,29.5
2022-07-27T05:58:57.305Z,29.5
2022-07-27T06:04:15.496Z,29.5
2022-07-27T06:09:34.208Z,29.6
2022-07-27T06:14:52.931Z,29.5
2022-07-27T06:20:11.610Z,29.6
2022-07-27T06:25:35.872Z,29.6
2022-07-27T06:30:54.649Z,29.6
2022-07-27T06:36:13.368Z,29.7
2022-07-27T06:41:31.532Z,29.7
2022-07-27T06:46:50.036Z,29.7
2022-07-27T06:52:08.214Z,29.7
2022-07-27T06:57:26.690Z,29.7
2022-07-27T07:02:45.403Z,29.7
2022-07-27T07:08:03.854Z,29.7
2022-07-27T07:13:22.304Z,29.8
2022-07-27T07:18:40.471Z,29.8
2022-07-27T07:23:58.630Z,29.8
2022-07-27T07:29:16.794Z,29.8
2022-07-27T07:34:35.277Z,29.8
2022-07-27T07:39:53.196Z,29.8
2022-07-27T07:45:11.362Z,29.8
2022-07-27T07:50:29.521Z,29.9
2022-07-27T07:55:48.033Z,29.9
2022-07-27T08:01:06.630Z,29.9
2022-07-27T08:06:25.088Z,29.9
2022-07-27T08:11:43.319Z,29.9
2022-07-27T08:17:01.763Z,29.9
2022-07-27T08:22:20.199Z,30
2022-07-27T08:27:41.128Z,30
2022-07-27T08:32:59.274Z,30
2022-07-27T08:38:17.728Z,30
2022-07-27T08:43:35.893Z,30.1
2022-07-27T08:48:54.458Z,30.1
2022-07-27T08:54:12.893Z,30.1
2022-07-27T08:59:31.067Z,30.1
2022-07-27T09:04:49.916Z,30.2
2022-07-27T09:10:08.654Z,30.2
2022-07-27T09:15:34.953Z,30.2
2022-07-27T09:20:55.008Z,30.2
2022-07-27T09:26:32.844Z,30.2
2022-07-27T09:31:53.063Z,30.3
2022-07-27T09:37:11.230Z,30.3
2022-07-27T09:49:48.422Z,30.3
2022-07-27T09:55:06.610Z,30.3
2022-07-27T10:00:25.334Z,30.4
2022-07-27T10:05:44.048Z,30.4
2022-07-27T10:11:04.573Z,30.4
2022-07-27T10:16:26.033Z,30.5
2022-07-27T10:21:44.495Z,30.5
2022-07-27T10:27:03.213Z,30.5
2022-07-27T10:32:21.655Z,30.5
2022-07-27T10:37:39.816Z,30.5
2022-07-27T10:42:58.836Z,30.5
2022-07-27T10:48:18.057Z,30.5
2022-07-27T10:54:12.266Z,30.6
2022-07-27T11:00:16.247Z,30.6
2022-07-27T11:12:41.256Z,30.6
2022-07-27T11:18:05.267Z,30.6
2022-07-27T11:23:53.632Z,30.6
2022-07-27T11:29:13.009Z,30.6
2022-07-27T11:34:31.704Z,30.6
2022-07-27T11:40:56.598Z,30.7
2022-07-27T11:46:41.768Z,30.7
2022-07-27T11:52:01.457Z,30.7
2022-07-27T11:57:19.908Z,30.7
2022-07-27T12:02:38.081Z,30.7
2022-07-27T12:07:56.509Z,30.7
2022-07-27T12:13:14.956Z,30.7
2022-07-27T12:18:33.402Z,30.7
2022-07-27T12:23:52.851Z,30.8
2022-07-27T12:29:14.504Z,30.8
2022-07-27T12:34:33.229Z,30.8
2022-07-27T12:39:51.667Z,30.8
2022-07-27T12:45:10.109Z,30.8
2022-07-27T12:50:28.556Z,30.8
2022-07-27T12:55:46.729Z,30.8
2022-07-27T13:01:05.801Z,30.8
2022-07-27T13:06:24.616Z,30.8
2022-07-27T13:11:48.499Z,30.8
2022-07-27T13:17:06.981Z,30.8
2022-07-27T13:22:25.149Z,30.8
2022-07-27T13:27:43.593Z,30.9
2022-07-27T13:33:02.340Z,30.9
2022-07-27T13:38:22.402Z,30.9
2022-07-27T13:43:40.866Z,30.9
2022-07-27T13:48:59.430Z,30.9
2022-07-27T13:54:17.609Z,30.8
2022-07-27T13:59:36.336Z,30.8
2022-07-27T14:04:54.500Z,30.7
2022-07-27T14:10:15.593Z,30.7
2022-07-27T14:15:33.759Z,30.6
2022-07-27T14:21:08.011Z,30.6
2022-07-27T14:26:26.464Z,30.6
2022-07-27T14:31:44.736Z,30.5
2022-07-27T14:37:04.689Z,30.5
2022-07-27T14:42:23.920Z,30.5
2022-07-27T14:47:42.353Z,30.5
2022-07-27T14:53:01.082Z,30.5
2022-07-27T14:58:19.519Z,30.5
2022-07-27T15:03:37.966Z,30.5
2022-07-27T15:08:56.405Z,30.5
2022-07-27T15:14:15.133Z,30.5
2022-07-27T15:19:33.574Z,30.6
2022-07-27T15:24:52.012Z,30.6
2022-07-27T15:30:10.494Z,30.6
2022-07-27T15:35:28.903Z,30.6
2022-07-27T15:40:47.066Z,30.7
2022-07-27T15:46:05.233Z,30.7
2022-07-27T15:51:23.665Z,30.7
2022-07-27T15:56:42.390Z,30.7
2022-07-27T16:02:00.827Z,30.7
2022-07-27T16:07:19.800Z,30.7
2022-07-27T16:12:38.801Z,30.7
2022-07-27T16:17:57.207Z,30.7
2022-07-27T16:23:22.171Z,30.7
2022-07-27T16:28:40.814Z,30.7
2022-07-27T16:33:59.258Z,30.7
2022-07-27T16:39:17.704Z,30.7
2022-07-27T16:44:36.139Z,30.8
2022-07-27T16:49:54.752Z,30.8
2022-07-27T16:55:12.907Z,30.8
2022-07-27T17:00:38.839Z,30.8
2022-07-27T17:06:05.575Z,30.8
2022-07-27T17:11:25.233Z,30.8
2022-07-27T17:16:52.484Z,30.8
2022-07-27T17:22:10.371Z,30.8
2022-07-27T17:27:29.094Z,30.8
2022-07-27T17:32:47.821Z,30.8
2022-07-27T17:38:07.750Z,30.8
2022-07-27T17:43:25.887Z,30.8
2022-07-27T17:48:44.473Z,30.8
2022-07-27T17:54:02.972Z,30.8
2022-07-27T17:59:38.505Z,30.8
2022-07-27T18:04:57.648Z,30.8
2022-07-27T18:10:16.377Z,30.8
2022-07-27T18:15:35.238Z,30.8
2022-07-27T18:20:53.456Z,30.8
2022-07-27T18:26:12.188Z,30.8
2022-07-27T18:31:30.841Z,30.8
2022-07-27T18:36:49.341Z,30.8
2022-07-27T18:42:07.793Z,30.8
2022-07-27T18:47:26.513Z,30.8
2022-07-27T18:52:44.839Z,30.9
2022-07-27T18:58:03.367Z,30.9
2022-07-27T19:03:22.747Z,30.9
2022-07-27T19:08:46.178Z,30.8
2022-07-27T19:14:04.350Z,30.8
2022-07-27T19:19:24.116Z,30.7
2022-07-27T19:24:43.147Z,30.7
2022-07-27T19:30:01.317Z,30.6
2022-07-27T19:35:19.480Z,30.6
2022-07-27T19:40:46.339Z,30.4
2022-07-27T19:46:04.806Z,30.3
2022-07-27T19:51:23.043Z,30.4
2022-07-27T19:56:41.215Z,30.4
2022-07-27T20:01:59.938Z,30.5
2022-07-27T20:07:18.907Z,30.5
2022-07-27T20:12:37.066Z,30.5
2022-07-27T20:17:55.233Z,30.6
2022-07-27T20:23:13.398Z,30.6
2022-07-27T20:28:32.129Z,30.6
2022-07-27T21:17:58.272Z,30.7
2022-07-27T21:23:19.337Z,30.7
2022-07-27T21:28:41.395Z,30.7
2022-07-27T21:34:01.224Z,30.6
2022-07-27T21:39:19.385Z,30.6
2022-07-27T21:44:37.855Z,30.5
2022-07-27T21:49:56.334Z,30.5
2022-07-27T21:55:23.635Z,30.5
2022-07-27T22:00:42.227Z,30.4
2022-07-27T22:06:00.708Z,30.4
2022-07-27T22:11:19.477Z,30.3
2022-07-27T22:16:37.785Z,30.2
2022-07-27T22:21:56.182Z,30.1
2022-07-27T22:27:14.379Z,30
2022-07-27T22:32:33.145Z,30
2022-07-27T22:37:51.910Z,30
2022-07-27T22:43:10.788Z,29.9
2022-07-27T22:48:29.555Z,29.9
2022-07-27T22:53:48.309Z,29.9
2022-07-27T22:59:06.789Z,29.9
2022-07-27T23:04:25.284Z,29.8
2022-07-27T23:09:43.489Z,29.9
2022-07-27T23:15:01.966Z,29.8
2022-07-27T23:20:20.169Z,29.8
2022-07-27T23:25:38.828Z,29.8
2022-07-27T23:30:57.033Z,29.8
2022-07-27T23:36:15.809Z,29.8
2022-07-27T23:41:34.021Z,29.8
2022-07-27T23:46:52.893Z,29.8
2022-07-27T23:52:11.762Z,29.8
2022-07-27T23:57:30.530Z,29.8
